Time;durP1;ratioP1;P1;durP2;ratioP2;P2;SDS_P1;SDS_P2;PMS_P1;PMS_P2;Temp;Humidity;BMP_temperature;BMP_pressure;BME280_temperature;BME280_humidity;BME280_pressure;Samples;Min_cycle;Max_cycle;Signal;HPM_P1;HPM_P2
2022/12/25 00:00:11;;;;;;;192.25;102.45;;;6.70;99.90;;;;;;5112061;28;20023;-76
2022/12/25 00:02:37;;;;;;;108.22;62.35;;;6.70;99.90;;;;;;5102604;28;20068;-75
2022/12/25 00:05:04;;;;;;;66.45;39.30;;;6.90;99.90;;;;;;5099110;28;20499;-75
2022/12/25 00:07:31;;;;;;;38.42;24.83;;;7.00;99.90;;;;;;5111710;28;20065;-75
2022/12/25 00:09:57;;;;;;;87.32;45.88;;;7.00;99.90;;;;;;5115828;28;20031;-76
2022/12/25 00:12:22;;;;;;;348.60;155.43;;;7.10;99.90;;;;;;5115799;28;20030;-76
2022/12/25 00:14:48;;;;;;;85.05;47.08;;;7.00;99.90;;;;;;5095426;28;20584;-76
2022/12/25 00:17:14;;;;;;;42.10;26.00;;;7.00;99.90;;;;;;5102005;28;20057;-76
2022/12/25 00:19:40;;;;;;;34.72;23.38;;;7.00;99.90;;;;;;5101537;28;20475;-76
2022/12/25 00:22:05;;;;;;;34.08;21.65;;;6.90;99.90;;;;;;5103615;28;20110;-76
2022/12/25 00:24:31;;;;;;;29.20;20.90;;;6.80;99.90;;;;;;5102386;28;20035;-76
2022/12/25 00:26:57;;;;;;;30.27;20.63;;;6.80;99.90;;;;;;5100666;28;20028;-76
2022/12/25 00:29:22;;;;;;;33.15;21.52;;;6.80;99.90;;;;;;5098732;28;20475;-76
2022/12/25 00:31:48;;;;;;;31.45;21.23;;;6.70;99.90;;;;;;5102825;28;20040;-76
2022/12/25 00:34:14;;;;;;;32.72;21.92;;;6.70;99.90;;;;;;5098893;28;20031;-76
2022/12/25 00:36:40;;;;;;;32.78;20.58;;;6.70;99.90;;;;;;5114382;28;20114;-76
2022/12/25 00:39:06;;;;;;;30.35;19.92;;;6.70;99.90;;;;;;5115376;28;20068;-76
2022/12/25 00:44:16;;;;;;;32.95;20.30;;;6.60;99.90;;;;;;5115401;28;20466;-76
2022/12/25 00:46:42;;;;;;;30.85;21.10;;;6.60;99.90;;;;;;5115470;28;20483;-76
2022/12/25 00:49:09;;;;;;;28.40;20.38;;;6.60;99.90;;;;;;5099777;28;20028;-76
2022/12/25 00:51:35;;;;;;;29.00;20.40;;;6.60;99.90;;;;;;5114176;28;20054;-76
2022/12/25 00:54:01;;;;;;;29.80;20.15;;;6.60;99.90;;;;;;5114839;28;20483;-76
2022/12/25 00:56:27;;;;;;;27.45;19.63;;;6.60;99.90;;;;;;5095917;28;20027;-76
2022/12/25 00:58:53;;;;;;;27.88;19.45;;;6.60;99.90;;;;;;5094608;28;20455;-76
2022/12/25 01:01:19;;;;;;;27.58;19.25;;;6.60;99.90;;;;;;5096962;28;20053;-76
2022/12/25 01:03:45;;;;;;;29.50;20.13;;;6.60;99.90;;;;;;5110346;28;20112;-76
2022/12/25 01:06:11;;;;;;;29.90;20.13;;;6.60;99.90;;;;;;5094524;28;20463;-76
2022/12/25 01:10:21;;;;;;;27.33;18.35;;;6.60;99.90;;;;;;5093016;28;20115;-76
2022/12/25 01:11:29;;;;;;;31.77;19.10;;;6.60;99.90;;;;;;5094357;28;20059;-76
2022/12/25 01:13:54;;;;;;;28.08;18.50;;;6.60;99.90;;;;;;5098742;28;20622;-76
2022/12/25 01:16:20;;;;;;;28.88;19.35;;;6.60;99.90;;;;;;5114685;28;20034;-76
2022/12/25 01:18:46;;;;;;;25.35;18.63;;;6.60;99.90;;;;;;5097895;28;20023;-76
2022/12/25 01:21:19;;;;;;;27.25;18.35;;;6.60;99.90;;;;;;5094015;28;20020;-75
2022/12/25 01:23:46;;;;;;;28.77;18.42;;;6.60;99.90;;;;;;5102780;28;20012;-76
2022/12/25 01:26:13;;;;;;;27.60;19.02;;;6.60;99.90;;;;;;5114425;28;20023;-76
2022/12/25 01:28:40;;;;;;;30.20;18.73;;;6.60;99.90;;;;;;5107105;28;20020;-76
2022/12/25 01:31:10;;;;;;;27.33;18.90;;;6.60;99.90;;;;;;5092694;28;20020;-76
2022/12/25 01:33:37;;;;;;;26.90;18.63;;;6.60;99.90;;;;;;5097090;28;20030;-76
2022/12/25 01:36:04;;;;;;;24.83;17.25;;;6.60;99.90;;;;;;5100993;28;20056;-76
2022/12/25 01:38:29;;;;;;;27.02;18.45;;;6.60;99.90;;;;;;5092249;28;20364;-76
2022/12/25 01:40:55;;;;;;;25.88;19.00;;;6.60;99.90;;;;;;5100934;28;20030;-76
2022/12/25 01:43:30;;;;;;;24.58;17.30;;;6.60;99.90;;;;;;5103166;28;20048;-76
2022/12/25 01:45:59;;;;;;;27.65;17.48;;;6.60;99.90;;;;;;5100712;28;20028;-76
2022/12/25 01:48:29;;;;;;;26.15;17.45;;;6.60;99.90;;;;;;5106391;28;20027;-76
2022/12/25 01:51:02;;;;;;;25.90;17.42;;;6.60;99.90;;;;;;5100892;28;20032;-76
2022/12/25 01:53:28;;;;;;;24.75;17.75;;;6.60;99.90;;;;;;5105135;28;20372;-76
2022/12/25 01:56:04;;;;;;;25.15;17.50;;;6.50;99.90;;;;;;5109266;28;20046;-76
2022/12/25 01:58:31;;;;;;;22.52;16.20;;;6.50;99.90;;;;;;5105828;28;20047;-76
2022/12/25 02:00:57;;;;;;;28.30;17.77;;;6.50;99.90;;;;;;5109844;28;20097;-76
2022/12/25 02:03:23;;;;;;;24.02;16.95;;;6.50;99.90;;;;;;5100008;28;20490;-76
2022/12/25 02:05:49;;;;;;;23.27;17.13;;;6.50;99.90;;;;;;5104051;28;20483;-76
2022/12/25 02:08:20;;;;;;;24.92;17.85;;;6.50;99.90;;;;;;5107895;28;20473;-76
2022/12/25 02:10:46;;;;;;;25.25;17.83;;;6.50;99.90;;;;;;5101983;28;20050;-76
2022/12/25 02:13:14;;;;;;;22.50;16.35;;;6.50;99.90;;;;;;5094727;28;20040;-76
2022/12/25 02:16:07;;;;;;;26.08;16.17;;;6.50;99.90;;;;;;5104779;28;20034;-76
2022/12/25 02:18:46;;;;;;;;;;;6.50;99.90;;;;;;5109767;28;20059;-76
2022/12/25 02:21:50;;;;;;;27.33;17.60;;;6.50;99.90;;;;;;5100551;28;19903;-76
2022/12/25 02:24:28;;;;;;;23.55;16.30;;;6.50;99.90;;;;;;5101035;28;20031;-76
2022/12/25 02:27:10;;;;;;;24.38;16.58;;;6.50;99.90;;;;;;5092791;28;20081;-76
2022/12/25 02:29:55;;;;;;;26.13;16.80;;;6.50;99.90;;;;;;5104945;28;20023;-76
2022/12/25 02:32:45;;;;;;;24.42;17.05;;;6.50;99.90;;;;;;5099636;28;20030;-76
2022/12/25 02:35:15;;;;;;;23.90;15.50;;;6.50;99.90;;;;;;5101082;28;20027;-76
2022/12/25 02:37:47;;;;;;;21.75;15.63;;;6.50;99.90;;;;;;5094265;28;20043;-76
2022/12/25 02:40:27;;;;;;;25.25;17.83;;;6.50;99.90;;;;;;5107498;28;20031;-76
2022/12/25 03:08:09;;;;;;;24.35;16.13;;;6.50;99.90;;;;;;5101159;28;20565;-76
2022/12/25 03:13:27;;;;;;;22.17;15.85;;;6.50;99.90;;;;;;5100129;28;20042;-76
2022/12/25 03:18:38;;;;;;;21.98;15.25;;;6.50;99.90;;;;;;5100598;28;20032;-76
2022/12/25 03:26:53;;;;;;;24.45;16.83;;;6.50;99.90;;;;;;5100205;28;20059;-76
2022/12/25 03:32:23;;;;;;;22.60;16.00;;;6.50;99.90;;;;;;5100111;28;20477;-76
2022/12/25 03:35:22;;;;;;;25.80;16.15;;;6.50;99.90;;;;;;5100814;28;20948;-76
2022/12/25 04:36:43;;;;;;;21.85;16.17;;;6.50;99.90;;;;;;5115022;28;20439;-76
2022/12/25 04:39:09;;;;;;;22.27;16.67;;;6.50;99.90;;;;;;5110493;28;20020;-76
2022/12/25 04:41:35;;;;;;;25.38;17.67;;;6.50;99.90;;;;;;5100206;28;20043;-76
2022/12/25 04:44:01;;;;;;;22.77;16.27;;;6.50;99.90;;;;;;5100619;28;20044;-76
2022/12/25 04:46:27;;;;;;;25.63;16.50;;;6.50;99.90;;;;;;5103863;28;20034;-76
2022/12/25 04:48:53;;;;;;;24.02;16.92;;;6.60;99.90;;;;;;5114941;28;20023;-76
2022/12/25 04:51:21;;;;;;;19.63;15.07;;;6.60;99.90;;;;;;5104804;28;20440;-76
2022/12/25 04:53:50;;;;;;;19.25;13.93;;;6.50;99.90;;;;;;5103044;28;20164;-76
2022/12/25 04:56:16;;;;;;;19.45;14.63;;;6.60;99.90;;;;;;5113267;28;20027;-76
2022/12/25 04:58:43;;;;;;;18.50;14.65;;;6.50;99.90;;;;;;5104527;28;20032;-76
2022/12/25 05:01:08;;;;;;;21.38;15.82;;;6.50;99.90;;;;;;5096765;28;20020;-76
2022/12/25 05:03:35;;;;;;;17.98;13.38;;;6.60;99.90;;;;;;5111348;28;20076;-76
2022/12/25 05:06:00;;;;;;;18.17;13.18;;;6.50;99.90;;;;;;5101544;28;20066;-76
2022/12/25 05:08:28;;;;;;;19.38;13.82;;;6.60;99.90;;;;;;5103567;28;20059;-76
2022/12/25 05:10:54;;;;;;;18.10;13.63;;;6.70;99.90;;;;;;5106427;28;20039;-76
2022/12/25 05:13:20;;;;;;;19.65;13.65;;;6.60;99.90;;;;;;5100635;28;20027;-76
2022/12/25 05:15:46;;;;;;;17.63;12.98;;;6.60;99.90;;;;;;5105897;28;20058;-76
2022/12/25 05:18:11;;;;;;;18.10;12.80;;;6.60;99.90;;;;;;5105443;28;20024;-76
2022/12/25 05:20:37;;;;;;;19.65;13.40;;;6.60;99.90;;;;;;5104774;28;20031;-76
2022/12/25 05:23:03;;;;;;;17.77;12.13;;;6.60;99.90;;;;;;5099507;28;20035;-76
2022/12/25 05:25:29;;;;;;;14.95;11.80;;;6.50;99.90;;;;;;5101269;28;20070;-75
2022/12/25 05:27:54;;;;;;;15.35;12.00;;;6.60;99.90;;;;;;5107056;28;20475;-76
2022/12/25 05:30:20;;;;;;;16.02;12.55;;;6.50;99.90;;;;;;5105763;28;20028;-76
2022/12/25 05:32:46;;;;;;;14.88;11.65;;;6.60;99.90;;;;;;5099617;28;20032;-76
2022/12/25 05:35:12;;;;;;;16.98;12.05;;;6.60;99.90;;;;;;5101775;28;20027;-76
2022/12/25 05:37:38;;;;;;;16.60;12.15;;;6.60;99.90;;;;;;5102120;28;20145;-76
2022/12/25 05:40:05;;;;;;;13.25;10.95;;;6.60;99.90;;;;;;5096062;28;20090;-76
2022/12/25 05:42:30;;;;;;;16.13;11.70;;;6.70;99.90;;;;;;5093597;28;20039;-76
2022/12/25 05:44:56;;;;;;;16.08;11.40;;;6.70;99.90;;;;;;5099583;28;20052;-76
2022/12/25 05:47:22;;;;;;;16.30;11.75;;;6.70;99.90;;;;;;5097075;28;20034;-76
2022/12/25 05:49:47;;;;;;;15.57;11.32;;;6.80;99.90;;;;;;5101423;28;20020;-76
2022/12/25 05:52:13;;;;;;;17.20;12.50;;;6.80;99.90;;;;;;5103707;28;20059;-76
2022/12/25 05:54:39;;;;;;;14.65;10.90;;;6.80;99.90;;;;;;5100301;28;20066;-76
2022/12/25 05:57:05;;;;;;;16.45;11.40;;;6.90;99.90;;;;;;5099902;28;20405;-76
2022/12/25 05:59:32;;;;;;;13.73;11.10;;;6.90;99.90;;;;;;5100779;28;20055;-76
2022/12/25 06:01:58;;;;;;;15.18;11.80;;;6.90;99.90;;;;;;5100230;28;20089;-75
2022/12/25 06:04:23;;;;;;;16.02;10.73;;;7.00;99.90;;;;;;5102822;28;20475;-75
2022/12/25 06:06:49;;;;;;;14.35;10.73;;;6.90;99.90;;;;;;5103487;28;20081;-76
2022/12/25 06:09:15;;;;;;;14.88;10.73;;;7.00;99.90;;;;;;5093086;28;20019;-76
2022/12/25 06:11:41;;;;;;;12.32;10.32;;;7.10;99.90;;;;;;5108838;28;20035;-76
2022/12/25 06:14:13;;;;;;;15.63;11.60;;;7.10;99.90;;;;;;5103430;28;20059;-76
2022/12/25 06:16:39;;;;;;;14.63;10.60;;;7.20;99.90;;;;;;5093243;28;20106;-76
2022/12/25 06:19:05;;;;;;;14.77;10.75;;;7.20;99.90;;;;;;5100823;28;20066;-76
2022/12/25 06:21:31;;;;;;;13.88;10.35;;;7.20;99.90;;;;;;5100612;28;20110;-76
2022/12/25 06:23:58;;;;;;;14.32;11.13;;;7.30;99.90;;;;;;5102748;28;20020;-76
2022/12/25 06:26:25;;;;;;;12.65;9.95;;;7.30;99.90;;;;;;5101245;28;20107;-76
2022/12/25 06:28:51;;;;;;;12.57;9.68;;;7.40;99.90;;;;;;5101347;28;20391;-76
2022/12/25 06:31:20;;;;;;;10.85;9.75;;;7.40;99.90;;;;;;5101446;28;20019;-76
2022/12/25 06:33:47;;;;;;;11.55;9.40;;;7.50;99.90;;;;;;5095692;28;20031;-76
2022/12/25 06:36:15;;;;;;;12.88;9.63;;;7.50;99.90;;;;;;5096552;28;20031;-76
2022/12/25 06:38:41;;;;;;;11.35;9.85;;;7.50;99.90;;;;;;5102271;28;20033;-76
2022/12/25 06:41:10;;;;;;;13.60;10.50;;;7.50;99.90;;;;;;5101216;28;20024;-76
2022/12/25 06:43:36;;;;;;;13.65;9.55;;;7.50;99.90;;;;;;5099912;28;20071;-76
2022/12/25 06:46:08;;;;;;;12.63;9.63;;;7.50;99.90;;;;;;5109380;28;20034;-76
2022/12/25 06:48:35;;;;;;;13.43;8.75;;;7.60;99.90;;;;;;5096745;28;20031;-76
2022/12/25 06:51:02;;;;;;;11.57;8.68;;;7.60;99.90;;;;;;5098893;28;20069;-76
2022/12/25 06:53:28;;;;;;;11.77;9.02;;;7.60;99.90;;;;;;5099281;28;20398;-76
2022/12/25 06:56:02;;;;;;;10.55;8.85;;;7.60;99.90;;;;;;5100768;28;20026;-76
2022/12/25 06:58:27;;;;;;;11.40;9.00;;;7.60;99.90;;;;;;5103177;28;20044;-76
2022/12/25 07:00:53;;;;;;;10.57;9.00;;;7.60;99.90;;;;;;5098875;28;20450;-76
2022/12/25 07:03:20;;;;;;;12.20;9.35;;;7.60;99.90;;;;;;5102263;28;20020;-76
2022/12/25 07:05:46;;;;;;;12.50;9.57;;;7.70;99.90;;;;;;5099318;28;20532;-76
2022/12/25 07:08:12;;;;;;;13.07;9.73;;;7.60;99.90;;;;;;5106930;28;20027;-76
2022/12/25 07:10:38;;;;;;;13.45;10.30;;;7.60;99.90;;;;;;5105582;28;20062;-76
2022/12/25 07:13:03;;;;;;;15.20;12.10;;;7.60;99.90;;;;;;5104114;28;20051;-76
2022/12/25 07:15:29;;;;;;;18.15;11.60;;;7.70;99.90;;;;;;5102726;28;20066;-75
2022/12/25 07:17:55;;;;;;;17.95;12.38;;;7.60;99.90;;;;;;5108043;28;20024;-76
2022/12/25 07:20:20;;;;;;;15.80;12.05;;;7.60;99.90;;;;;;5112162;27;20019;-76
2022/12/25 07:22:46;;;;;;;16.65;12.40;;;7.60;99.90;;;;;;5115152;28;20482;-76
2022/12/25 07:25:12;;;;;;;17.58;13.07;;;7.60;99.90;;;;;;5106622;28;20486;-76
2022/12/25 07:27:37;;;;;;;15.98;12.82;;;7.60;99.90;;;;;;5105543;28;20106;-76
2022/12/25 07:30:04;;;;;;;17.67;13.15;;;7.60;99.90;;;;;;5114783;28;20024;-76
2022/12/25 07:32:30;;;;;;;19.20;13.68;;;7.60;99.90;;;;;;5104093;28;20068;-76
2022/12/25 07:34:56;;;;;;;24.95;15.98;;;7.60;99.90;;;;;;5097694;28;20024;-76
2022/12/25 07:37:21;;;;;;;28.13;18.33;;;7.60;99.90;;;;;;5095742;28;20368;-76
2022/12/25 07:39:47;;;;;;;27.65;18.85;;;7.60;99.90;;;;;;5095606;28;20020;-76
2022/12/25 07:42:13;;;;;;;33.10;18.50;;;7.60;99.90;;;;;;5116419;28;20020;-76
2022/12/25 07:44:39;;;;;;;26.45;18.23;;;7.70;99.90;;;;;;5116092;28;20043;-76
2022/12/25 07:47:04;;;;;;;22.50;16.08;;;7.70;99.90;;;;;;5115236;28;20023;-76
2022/12/25 07:49:30;;;;;;;22.63;15.25;;;7.70;99.90;;;;;;5101275;28;20111;-76
2022/12/25 07:51:56;;;;;;;20.52;15.65;;;7.70;99.90;;;;;;5095894;28;20036;-76
2022/12/25 07:54:22;;;;;;;20.58;12.98;;;7.70;99.90;;;;;;5110529;28;20080;-76
2022/12/25 07:56:52;;;;;;;16.17;12.15;;;7.70;99.90;;;;;;5105774;28;20081;-76
2022/12/25 07:59:18;;;;;;;16.05;10.35;;;7.80;99.90;;;;;;5098195;28;20024;-76
2022/12/25 08:01:44;;;;;;;12.20;9.32;;;7.80;99.90;;;;;;5116036;28;20030;-76
2022/12/25 08:04:10;;;;;;;10.90;8.98;;;7.90;99.90;;;;;;5108177;28;20458;-76
2022/12/25 08:06:37;;;;;;;10.95;8.93;;;7.90;99.90;;;;;;5095807;28;20632;-76
2022/12/25 08:09:12;;;;;;;11.70;9.43;;;7.90;99.90;;;;;;5094415;28;20126;-76
2022/12/25 08:11:42;;;;;;;10.77;9.20;;;7.90;99.90;;;;;;5097701;28;20016;-76
2022/12/25 08:14:08;;;;;;;14.15;11.30;;;7.90;99.90;;;;;;5098364;28;20042;-76
2022/12/25 08:16:34;;;;;;;12.60;9.98;;;7.90;99.90;;;;;;5115476;28;20019;-76
2022/12/25 08:19:00;;;;;;;15.02;10.23;;;7.90;99.90;;;;;;5114330;28;20020;-76
2022/12/25 08:21:26;;;;;;;13.02;9.35;;;7.90;99.90;;;;;;5122184;27;20026;-76
2022/12/25 08:23:52;;;;;;;11.82;9.43;;;8.00;99.90;;;;;;5117432;27;20072;-76
2022/12/25 08:26:20;;;;;;;10.85;9.23;;;7.90;99.90;;;;;;5120722;27;20023;-76
2022/12/25 08:28:47;;;;;;;10.43;9.32;;;8.00;99.90;;;;;;5142335;27;20023;-76
2022/12/25 08:31:14;;;;;;;11.15;9.98;;;8.00;99.90;;;;;;5119083;27;20034;-75
2022/12/25 08:33:40;;;;;;;13.20;10.77;;;8.00;99.90;;;;;;5125428;27;20102;-75
2022/12/25 08:36:08;;;;;;;14.02;10.85;;;8.00;99.90;;;;;;5136024;27;20163;-75
2022/12/25 08:38:34;;;;;;;13.60;9.85;;;8.10;99.90;;;;;;5133673;27;20589;-76
2022/12/25 08:41:00;;;;;;;13.70;10.18;;;8.10;99.90;;;;;;5115173;27;20046;-76
2022/12/25 08:43:26;;;;;;;14.60;9.07;;;8.10;99.90;;;;;;5114883;28;20498;-76
2022/12/25 08:45:51;;;;;;;12.85;9.70;;;8.10;99.90;;;;;;5123035;27;20490;-76
2022/12/25 08:48:17;;;;;;;26.92;22.23;;;8.20;99.90;;;;;;5115033;28;20102;-75
2022/12/25 08:50:47;;;;;;;29.40;24.02;;;8.20;99.90;;;;;;5114837;28;20467;-74
2022/12/25 08:53:13;;;;;;;18.92;15.88;;;8.20;99.90;;;;;;5110029;28;20043;-74
2022/12/25 08:55:40;;;;;;;17.48;13.80;;;8.30;99.90;;;;;;5108376;28;20030;-75
2022/12/25 08:58:06;;;;;;;13.85;11.73;;;8.30;99.90;;;;;;5115179;27;20566;-76
2022/12/25 09:00:31;;;;;;;11.57;10.27;;;8.30;99.90;;;;;;5122953;27;20023;-76
2022/12/25 09:02:57;;;;;;;12.73;10.15;;;8.40;99.90;;;;;;5121635;27;20037;-76
2022/12/25 09:05:23;;;;;;;13.00;10.00;;;8.40;99.90;;;;;;5112527;28;20027;-76
2022/12/25 09:07:50;;;;;;;13.05;10.23;;;8.40;99.90;;;;;;5112757;28;20028;-76
2022/12/25 09:10:16;;;;;;;12.60;10.30;;;8.40;99.90;;;;;;5112577;28;20719;-76
2022/12/25 09:12:41;;;;;;;15.93;11.18;;;8.50;99.90;;;;;;5106455;28;20050;-75
2022/12/25 09:15:08;;;;;;;14.52;10.60;;;8.50;99.90;;;;;;5096997;28;20395;-76
2022/12/25 09:17:33;;;;;;;12.52;9.30;;;8.50;99.90;;;;;;5108021;28;20507;-76
2022/12/25 09:20:01;;;;;;;10.07;8.95;;;8.50;99.90;;;;;;5112186;28;20521;-76
2022/12/25 09:22:26;;;;;;;11.02;9.73;;;8.60;99.90;;;;;;5114184;28;20032;-80
2022/12/25 09:24:52;;;;;;;12.90;9.73;;;8.60;99.90;;;;;;5114383;28;20039;-80
2022/12/25 09:27:18;;;;;;;13.40;10.60;;;8.60;99.90;;;;;;5112936;28;20035;-80
2022/12/25 09:29:44;;;;;;;15.85;10.98;;;8.70;99.90;;;;;;5104744;28;20142;-80
2022/12/25 09:32:09;;;;;;;13.60;10.52;;;8.70;99.90;;;;;;5095638;28;20032;-80
2022/12/25 09:34:35;;;;;;;13.27;10.23;;;8.80;99.90;;;;;;5103605;28;20066;-80
2022/12/25 09:37:01;;;;;;;11.07;9.40;;;8.80;99.90;;;;;;5110278;28;20024;-80
2022/12/25 09:39:27;;;;;;;12.82;9.40;;;8.80;99.90;;;;;;5114027;28;20093;-80
2022/12/25 09:42:01;;;;;;;10.77;8.82;;;8.90;99.90;;;;;;5107719;28;20069;-80
2022/12/25 09:44:33;;;;;;;12.00;8.70;;;8.90;99.90;;;;;;5103418;28;20048;-80
2022/12/25 09:47:09;;;;;;;11.93;9.35;;;9.00;99.90;;;;;;5103432;28;20666;-80
2022/12/25 09:50:01;;;;;;;12.00;9.50;;;9.00;99.90;;;;;;5109439;28;20107;-80
2022/12/25 09:52:47;;;;;;;12.38;9.52;;;9.10;99.90;;;;;;5097977;28;20293;-80
2022/12/25 09:55:23;;;;;;;11.05;9.88;;;9.10;99.90;;;;;;5110451;28;20020;-80
2022/12/25 09:57:55;;;;;;;12.65;9.93;;;9.20;99.90;;;;;;5110074;28;20015;-80
2022/12/25 10:00:36;;;;;;;13.60;10.38;;;9.30;99.90;;;;;;5104108;28;20027;-80
2022/12/25 10:03:32;;;;;;;13.10;10.23;;;9.30;99.90;;;;;;5102690;28;20028;-80
2022/12/25 10:06:10;;;;;;;11.57;9.48;;;9.40;99.90;;;;;;5104489;28;20028;-80
2022/12/25 10:09:09;;;;;;;11.15;9.95;;;9.40;99.90;;;;;;5100796;28;20028;-80
2022/12/25 10:11:49;;;;;;;13.10;10.10;;;9.50;99.90;;;;;;5110441;28;20549;-80
2022/12/25 10:14:15;;;;;;;13.88;10.15;;;9.50;99.90;;;;;;5111887;28;20478;-80
2022/12/25 10:16:55;;;;;;;13.48;9.95;;;9.60;99.90;;;;;;5112269;28;20072;-80
2022/12/25 10:19:36;;;;;;;10.80;9.40;;;9.60;99.90;;;;;;5111566;28;20428;-80
2022/12/25 10:22:15;;;;;;;13.02;9.70;;;9.70;99.90;;;;;;5112008;28;20024;-80
2022/12/25 10:24:53;;;;;;;11.43;9.52;;;9.80;99.90;;;;;;5115117;27;20016;-80
2022/12/25 10:27:40;;;;;;;12.18;9.50;;;9.80;99.90;;;;;;5111798;28;20027;-80
2022/12/25 10:30:17;;;;;;;13.98;9.50;;;9.80;99.90;;;;;;5108151;28;20065;-80
2022/12/25 10:32:44;;;;;;;15.40;10.38;;;9.90;99.90;;;;;;5103443;28;20511;-80
2022/12/25 10:35:12;;;;;;;13.57;9.63;;;9.90;99.90;;;;;;5108397;27;20024;-80
2022/12/25 10:37:41;;;;;;;11.05;9.18;;;9.90;99.90;;;;;;5104021;28;20027;-80
2022/12/25 10:40:21;;;;;;;13.15;9.45;;;10.00;99.90;;;;;;5103639;28;20020;-80
2022/12/25 10:42:54;;;;;;;19.55;13.55;;;10.00;99.90;;;;;;5106565;28;20510;-79
2022/12/25 10:45:20;;;;;;;18.80;15.20;;;10.00;99.90;;;;;;5106737;28;20394;-80
2022/12/25 10:47:46;;;;;;;24.02;17.50;;;10.10;99.90;;;;;;5098986;28;20020;-80
2022/12/25 10:50:23;;;;;;;26.58;17.80;;;10.10;99.90;;;;;;5103472;28;20020;-80
2022/12/25 10:53:04;;;;;;;20.58;17.05;;;10.10;99.90;;;;;;5101750;28;20028;-75
2022/12/25 10:55:31;;;;;;;27.80;17.77;;;10.20;99.90;;;;;;5097588;28;20020;-75
2022/12/25 10:57:57;;;;;;;26.55;18.38;;;10.20;99.90;;;;;;5100960;28;20042;-75
2022/12/25 11:00:32;;;;;;;25.95;17.10;;;10.20;99.90;;;;;;5101193;28;20042;-75
2022/12/25 11:02:58;;;;;;;25.45;17.70;;;10.30;99.90;;;;;;5099296;28;20035;-75
2022/12/25 11:05:34;;;;;;;23.38;16.20;;;10.30;99.90;;;;;;5100353;28;20020;-75
2022/12/25 11:08:01;;;;;;;22.38;17.02;;;10.30;99.90;;;;;;5101734;28;20085;-75
2022/12/25 11:10:31;;;;;;;19.75;15.07;;;10.30;99.90;;;;;;5101478;28;20028;-75
2022/12/25 11:12:58;;;;;;;20.92;15.52;;;10.30;99.90;;;;;;5097670;28;20089;-75
2022/12/25 11:15:37;;;;;;;22.63;15.82;;;10.40;99.90;;;;;;5096128;28;20115;-75
2022/12/25 11:18:18;;;;;;;22.75;15.93;;;10.40;99.90;;;;;;5100338;28;20024;-75
2022/12/25 11:20:54;;;;;;;25.02;16.83;;;10.40;99.90;;;;;;5097616;28;20040;-75
2022/12/25 11:23:22;;;;;;;25.05;15.60;;;10.40;99.90;;;;;;5095878;28;20024;-75
2022/12/25 11:26:06;;;;;;;21.08;15.55;;;10.40;99.90;;;;;;5096256;28;20028;-75
2022/12/25 11:28:34;;;;;;;21.40;15.98;;;10.50;99.90;;;;;;5098030;28;20508;-75
2022/12/25 11:31:11;;;;;;;24.40;17.80;;;10.50;99.90;;;;;;5101402;28;20349;-75
2022/12/25 11:34:13;;;;;;;21.95;17.35;;;10.50;99.90;;;;;;5098773;28;20084;-75
2022/12/25 11:36:43;;;;;;;22.37;17.40;;;10.60;99.90;;;;;;5095955;28;20445;-75
2022/12/25 11:39:23;;;;;;;22.65;16.05;;;10.60;99.90;;;;;;5098758;28;20475;-75
2022/12/25 11:41:52;;;;;;;20.70;16.75;;;10.60;99.90;;;;;;5099991;28;20279;-75
2022/12/25 11:44:39;;;;;;;22.80;16.40;;;10.60;99.90;;;;;;5101781;28;20051;-75
2022/12/25 11:47:31;;;;;;;23.85;16.17;;;10.60;99.90;;;;;;5099382;28;20040;-75
2022/12/25 11:50:22;;;;;;;22.25;15.63;;;10.60;99.90;;;;;;5102148;28;20024;-75
2022/12/25 11:52:49;;;;;;;20.98;16.17;;;10.70;99.90;;;;;;5101209;28;20031;-75
2022/12/25 11:55:28;;;;;;;21.50;16.42;;;10.70;99.90;;;;;;5103968;28;20387;-75
2022/12/25 11:58:01;;;;;;;19.25;14.95;;;10.70;99.90;;;;;;5106431;28;20474;-75
2022/12/25 12:00:29;;;;;;;17.40;13.82;;;10.80;99.90;;;;;;5103046;28;20425;-80
2022/12/25 12:03:02;;;;;;;16.58;12.63;;;10.80;99.90;;;;;;5106161;28;20489;-81
2022/12/25 12:05:37;;;;;;;15.05;12.00;;;10.90;99.90;;;;;;5105050;28;20395;-80
2022/12/25 12:08:05;;;;;;;16.60;11.82;;;10.90;99.90;;;;;;5103011;28;20047;-80
2022/12/25 12:11:14;;;;;;;13.40;10.70;;;10.90;99.90;;;;;;5103635;28;20024;-80
2022/12/25 12:13:45;;;;;;;16.05;11.25;;;10.90;99.90;;;;;;5102666;28;20077;-80
2022/12/25 12:16:11;;;;;;;14.23;11.20;;;10.90;99.90;;;;;;5101399;28;20039;-80
2022/12/25 12:18:37;;;;;;;13.32;10.25;;;10.90;99.90;;;;;;5107146;28;20024;-80
2022/12/25 12:21:16;;;;;;;12.95;10.23;;;10.90;99.90;;;;;;5102509;28;20032;-80
2022/12/25 12:24:04;;;;;;;11.80;10.23;;;10.90;99.90;;;;;;5103970;28;20024;-80
2022/12/25 12:26:36;;;;;;;12.23;10.10;;;10.90;99.90;;;;;;5121760;27;20548;-80
2022/12/25 12:29:05;;;;;;;13.75;10.65;;;10.90;99.90;;;;;;5106330;28;20387;-80
2022/12/25 12:31:44;;;;;;;13.90;10.63;;;10.90;99.90;;;;;;5105056;28;20055;-80
2022/12/25 12:34:31;;;;;;;14.18;10.32;;;10.90;99.90;;;;;;5100228;28;20044;-80
2022/12/25 12:37:05;;;;;;;12.02;9.90;;;10.90;99.90;;;;;;5103339;28;20028;-80
2022/12/25 12:39:37;;;;;;;11.57;9.25;;;10.90;99.90;;;;;;5103853;28;20479;-80
2022/12/25 12:42:16;;;;;;;14.45;10.65;;;10.90;99.90;;;;;;5104830;28;20020;-80
2022/12/25 12:44:43;;;;;;;12.05;10.55;;;10.90;99.90;;;;;;5102176;28;20055;-81
2022/12/25 12:47:30;;;;;;;15.60;11.32;;;10.90;99.90;;;;;;5104624;28;20074;-80
2022/12/25 12:50:00;;;;;;;12.68;11.05;;;10.90;99.90;;;;;;5099243;28;20031;-80
2022/12/25 12:52:36;;;;;;;12.20;10.73;;;11.00;99.90;;;;;;5101092;28;20024;-81
2022/12/25 12:55:06;;;;;;;19.27;12.43;;;10.90;99.90;;;;;;5102103;28;20401;-80
2022/12/25 12:57:40;;;;;;;14.75;11.45;;;11.00;99.90;;;;;;5105035;28;20031;-80
2022/12/25 13:00:27;;;;;;;16.98;12.32;;;10.90;99.90;;;;;;5102994;28;20020;-80
2022/12/25 13:03:13;;;;;;;18.83;12.98;;;11.00;99.90;;;;;;5112596;28;20102;-80
2022/12/25 13:05:55;;;;;;;18.98;13.80;;;11.00;99.90;;;;;;5110979;28;20088;-80
2022/12/25 13:08:33;;;;;;;15.32;12.52;;;11.00;99.90;;;;;;5112010;28;20451;-80
2022/12/25 13:11:22;;;;;;;17.55;13.13;;;11.00;99.90;;;;;;5110332;28;20116;-80
2022/12/25 13:13:51;;;;;;;19.50;13.05;;;11.00;99.90;;;;;;5110383;28;20022;-80
2022/12/25 13:16:31;;;;;;;16.15;12.45;;;10.90;99.90;;;;;;5112655;28;20020;-80
2022/12/25 13:19:03;;;;;;;17.70;13.52;;;10.90;99.90;;;;;;5112252;28;20016;-80
2022/12/25 13:21:30;;;;;;;14.50;12.98;;;10.90;99.90;;;;;;5112928;28;20497;-80
2022/12/25 13:24:07;;;;;;;18.20;13.60;;;10.90;99.90;;;;;;5112861;28;20027;-80
2022/12/25 13:26:34;;;;;;;18.88;14.32;;;10.90;99.90;;;;;;5106075;28;20038;-80
2022/12/25 13:29:00;;;;;;;18.75;13.55;;;10.90;99.90;;;;;;5107301;27;20489;-80
2022/12/25 13:31:28;;;;;;;18.23;13.93;;;10.90;99.90;;;;;;5111225;28;20054;-80
2022/12/25 13:34:01;;;;;;;20.63;13.77;;;10.90;99.90;;;;;;5110287;27;20440;-80
2022/12/25 13:36:33;;;;;;;20.40;14.55;;;10.90;99.90;;;;;;5109871;28;20107;-80
2022/12/25 13:38:59;;;;;;;16.27;13.73;;;10.90;99.90;;;;;;5110484;28;20047;-80
2022/12/25 13:44:39;;;;;;;21.15;15.15;;;10.80;99.90;;;;;;5102529;27;20305;-80
2022/12/25 13:47:26;;;;;;;17.10;14.20;;;10.80;99.90;;;;;;5097733;28;20027;-80
2022/12/25 13:49:54;;;;;;;17.65;14.32;;;10.80;99.90;;;;;;5100979;27;20056;-80
2022/12/25 13:52:26;;;;;;;21.05;15.88;;;10.80;99.90;;;;;;5097101;28;20255;-80
2022/12/25 13:54:56;;;;;;;19.25;14.63;;;10.80;99.90;;;;;;5103648;27;20106;-80
2022/12/25 13:57:26;;;;;;;22.60;15.50;;;10.80;99.90;;;;;;5104791;28;20023;-80
2022/12/25 13:59:52;;;;;;;19.42;14.77;;;10.70;99.90;;;;;;5103940;28;20012;-80
2022/12/25 14:02:23;;;;;;;20.52;15.73;;;10.70;99.90;;;;;;5104397;28;20035;-80
2022/12/25 14:04:48;;;;;;;19.98;15.73;;;10.70;99.90;;;;;;5117071;27;20035;-80
2022/12/25 14:07:20;;;;;;;19.63;14.45;;;10.70;99.90;;;;;;5100426;28;20024;-80
2022/12/25 14:09:56;;;;;;;21.92;15.45;;;10.70;99.90;;;;;;5104710;28;20047;-80
2022/12/25 14:12:23;;;;;;;19.88;13.88;;;10.60;99.90;;;;;;5101336;28;20028;-80
2022/12/25 14:14:51;;;;;;;15.30;12.68;;;10.70;99.90;;;;;;5101505;28;20100;-80
2022/12/25 14:17:17;;;;;;;16.88;13.30;;;10.70;99.90;;;;;;5100584;28;20016;-80
2022/12/25 14:19:43;;;;;;;17.20;13.00;;;10.70;99.90;;;;;;5100792;28;20074;-80
2022/12/25 14:22:21;;;;;;;19.30;13.90;;;10.70;99.90;;;;;;5099698;28;20020;-80
2022/12/25 14:24:47;;;;;;;25.00;15.98;;;10.70;99.90;;;;;;5106736;28;20024;-80
2022/12/25 14:27:17;;;;;;;17.95;14.70;;;10.70;99.90;;;;;;5101516;28;20032;-80
2022/12/25 14:29:45;;;;;;;20.20;15.23;;;10.60;99.90;;;;;;5102646;28;20490;-80
2022/12/25 14:32:24;;;;;;;17.35;14.82;;;10.60;99.90;;;;;;5104157;28;20024;-80
2022/12/25 14:35:01;;;;;;;20.17;15.10;;;10.60;99.90;;;;;;5101768;28;20054;-80